Time;durP1;ratioP1;P1;durP2;ratioP2;P2;SDS_P1;SDS_P2;PMS_P1;PMS_P2;Temp;Humidity;BMP_temperature;BMP_pressure;BME280_temperature;BME280_humidity;BME280_pressure;Samples;Min_cycle;Max_cycle;Signal;HPM_P1;HPM_P2
2022/10/30 00:01:19;;;;;;;32.67;24.13;;;15.30;99.90;;;;;;5039136;28;20446;-85
2022/10/30 00:03:46;;;;;;;34.07;21.13;;;;;;;;;;5049712;28;20485;-87
2022/10/30 00:06:12;;;;;;;27.50;22.83;;;14.90;99.90;;;;;;5059516;28;20471;-86
2022/10/30 00:08:39;;;;;;;30.87;23.53;;;;;;;;;;5060488;28;20477;-86
2022/10/30 00:11:10;;;;;;;25.90;21.40;;;14.90;99.90;;;;;;5056838;28;20435;-85
2022/10/30 00:13:37;;;;;;;27.17;22.43;;;15.10;99.90;;;;;;5055974;28;20454;-85
2022/10/30 00:16:06;;;;;;;31.53;23.17;;;15.00;99.90;;;;;;5055739;28;20477;-86
2022/10/30 00:18:35;;;;;;;30.60;23.80;;;14.40;99.90;;;;;;5055143;28;20453;-86
2022/10/30 00:21:05;;;;;;;28.80;22.30;;;;;;;;;;5038403;28;20454;-86
2022/10/30 00:23:32;;;;;;;29.10;22.23;;;;;;;;;;5042970;28;20441;-86
2022/10/30 00:26:03;;;;;;;29.33;22.87;;;14.30;99.90;;;;;;5057882;28;20490;-86
2022/10/30 00:28:31;;;;;;;35.10;22.63;;;15.00;99.90;;;;;;5058728;28;20439;-86
2022/10/30 00:30:59;;;;;;;35.70;23.77;;;15.00;99.90;;;;;;5051130;28;20465;-87
2022/10/30 00:33:26;;;;;;;34.13;24.60;;;14.80;99.90;;;;;;5049994;28;20438;-85
2022/10/30 00:35:52;;;;;;;33.60;22.53;;;14.70;99.90;;;;;;5051873;28;20509;-87
2022/10/30 00:38:19;;;;;;;30.77;24.00;;;14.70;99.90;;;;;;5052213;28;20443;-85
2022/10/30 00:40:46;;;;;;;36.20;24.00;;;14.70;99.90;;;;;;5043567;28;20925;-86
2022/10/30 00:43:28;;;;;;;26.43;21.70;;;14.50;99.90;;;;;;5042673;28;20451;-85
2022/10/30 00:46:00;;;;;;;28.60;22.97;;;14.60;99.90;;;;;;5037742;28;20995;-86
2022/10/30 00:48:28;;;;;;;28.87;21.70;;;14.30;99.90;;;;;;5037412;28;20890;-86
2022/10/30 00:50:56;;;;;;;36.80;22.40;;;;;;;;;;5037648;28;20821;-85
2022/10/30 00:53:22;;;;;;;44.53;26.03;;;14.40;99.90;;;;;;5037208;28;20455;-86
2022/10/30 00:55:53;;;;;;;26.40;21.97;;;14.20;99.90;;;;;;5036887;28;20446;-86
2022/10/30 00:58:24;;;;;;;33.30;24.33;;;14.00;99.90;;;;;;5051228;28;20416;-85
2022/10/30 01:00:54;;;;;;;35.03;27.30;;;14.20;99.90;;;;;;5058800;28;20457;-86
2022/10/30 01:03:24;;;;;;;29.80;23.33;;;14.30;99.90;;;;;;5058952;28;20441;-86
2022/10/30 01:05:54;;;;;;;31.43;25.03;;;14.00;99.90;;;;;;5045037;28;20461;-86
2022/10/30 01:08:21;;;;;;;31.60;23.90;;;14.40;99.90;;;;;;5054442;28;20475;-85
2022/10/30 01:10:49;;;;;;;29.57;24.83;;;14.50;99.90;;;;;;5057472;28;20441;-85
2022/10/30 01:13:17;;;;;;;34.77;24.97;;;14.50;99.90;;;;;;5055315;28;20442;-86
2022/10/30 01:15:56;;;;;;;32.43;24.80;;;14.10;99.90;;;;;;5056060;28;20453;-86
2022/10/30 01:18:34;;;;;;;32.93;25.90;;;14.20;99.90;;;;;;5056554;28;20442;-85
2022/10/30 01:21:11;;;;;;;34.60;28.90;;;13.90;99.90;;;;;;5052455;28;20411;-86
2022/10/30 01:23:48;;;;;;;35.17;24.53;;;14.20;99.90;;;;;;5055190;28;20430;-86
2022/10/30 01:26:26;;;;;;;35.40;26.83;;;14.10;99.90;;;;;;5055758;28;20448;-86
2022/10/30 01:29:09;;;;;;;31.20;27.10;;;13.70;99.90;;;;;;5049309;28;20412;-85
2022/10/30 01:31:49;;;;;;;37.73;26.57;;;14.20;99.90;;;;;;5040659;28;20427;-86
2022/10/30 01:34:21;;;;;;;36.80;26.53;;;13.60;99.90;;;;;;5039751;28;20540;-86
2022/10/30 01:36:54;;;;;;;37.73;26.10;;;14.30;99.90;;;;;;5037173;28;20462;-86
2022/10/30 01:39:23;;;;;;;33.37;28.00;;;13.70;99.90;;;;;;5035526;28;20485;-86
2022/10/30 01:41:50;;;;;;;39.73;26.80;;;;;;;;;;5035808;28;20949;-86
2022/10/30 01:44:20;;;;;;;36.30;26.10;;;13.90;99.90;;;;;;5035856;28;20455;-86
2022/10/30 01:47:00;;;;;;;36.60;25.83;;;13.40;99.90;;;;;;5035850;28;20601;-86
2022/10/30 01:50:00;;;;;;;35.70;27.60;;;13.80;99.90;;;;;;5035492;28;20834;-86
2022/10/30 01:52:38;;;;;;;32.00;25.17;;;13.70;99.90;;;;;;5036000;28;20438;-87
2022/10/30 01:55:13;;;;;;;34.10;25.43;;;13.70;99.90;;;;;;5035875;28;20570;-86
2022/10/30 01:57:46;;;;;;;34.50;24.97;;;13.80;99.90;;;;;;5035488;28;20477;-86
2022/10/30 02:00:15;;;;;;;38.83;28.03;;;13.70;99.90;;;;;;5035068;28;20411;-86
2022/10/30 02:02:43;;;;;;;31.93;24.50;;;13.80;99.90;;;;;;5035279;28;20450;-86
2022/10/30 02:05:19;;;;;;;30.07;24.67;;;14.00;99.90;;;;;;5034979;28;20446;-86
2022/10/30 02:07:46;;;;;;;32.23;25.50;;;;;;;;;;5035707;28;20505;-86
2022/10/30 02:10:13;;;;;;;38.50;25.30;;;;;;;;;;5035043;28;20497;-87
2022/10/30 02:12:41;;;;;;;32.10;24.70;;;13.80;99.90;;;;;;5034613;28;20446;-87
2022/10/30 02:15:08;;;;;;;30.57;23.90;;;;;;;;;;5034397;28;20449;-87
2022/10/30 02:17:36;;;;;;;39.10;25.70;;;13.80;99.90;;;;;;5043995;28;20470;-86
2022/10/30 02:20:05;;;;;;;30.60;22.27;;;13.50;99.90;;;;;;5050242;28;20445;-86
2022/10/30 02:22:33;;;;;;;34.47;24.87;;;13.80;99.90;;;;;;5050091;28;20447;-86
2022/10/30 02:25:00;;;;;;;45.90;25.40;;;13.10;99.90;;;;;;5039533;28;20450;-87
2022/10/30 02:27:27;;;;;;;29.40;23.57;;;;;;;;;;5065057;22;20505;-84
2022/10/30 02:29:53;;;;;;;38.20;23.63;;;13.40;99.90;;;;;;5043162;28;20456;-84
2022/10/30 02:32:20;;;;;;;31.40;25.80;;;13.20;99.90;;;;;;5042065;28;20450;-85
2022/10/30 02:34:47;;;;;;;40.10;25.00;;;13.70;99.90;;;;;;5043234;28;20464;-85
2022/10/30 02:37:14;;;;;;;35.77;25.87;;;13.10;99.90;;;;;;5043362;28;20470;-83
2022/10/30 02:39:42;;;;;;;28.30;23.73;;;13.50;99.90;;;;;;5042772;28;20522;-83
2022/10/30 02:42:08;;;;;;;36.37;26.90;;;13.40;99.90;;;;;;5041839;28;20941;-83
2022/10/30 02:44:35;;;;;;;39.43;26.43;;;13.00;99.90;;;;;;5042848;28;20947;-83
2022/10/30 02:47:02;;;;;;;35.13;25.63;;;13.20;99.90;;;;;;5041914;28;20466;-82
2022/10/30 02:49:29;;;;;;;35.60;25.43;;;;;;;;;;5042504;28;20461;-82
2022/10/30 02:51:55;;;;;;;30.57;25.40;;;13.00;99.90;;;;;;5041510;28;20964;-84
2022/10/30 02:54:22;;;;;;;31.87;23.53;;;13.70;99.90;;;;;;5041281;28;20482;-84
2022/10/30 02:56:50;;;;;;;27.40;24.40;;;13.40;99.90;;;;;;5042442;28;20466;-83
2022/10/30 02:59:17;;;;;;;37.33;25.67;;;13.00;99.90;;;;;;5046173;28;20450;-81
2022/10/30 03:01:44;;;;;;;41.70;26.60;;;13.50;99.90;;;;;;5054042;28;20451;-83
2022/10/30 03:04:10;;;;;;;28.60;24.43;;;13.00;99.90;;;;;;5051165;28;20453;-82
2022/10/30 03:06:37;;;;;;;33.03;25.43;;;;;;;;;;5048372;28;20466;-82
2022/10/30 03:09:04;;;;;;;28.57;22.00;;;;;;;;;;5049972;28;20472;-84
2022/10/30 03:11:33;;;;;;;31.87;24.07;;;13.30;99.90;;;;;;5043371;28;20495;-84
2022/10/30 03:14:01;;;;;;;27.80;21.77;;;13.20;99.90;;;;;;5043128;28;20443;-84
2022/10/30 03:16:29;;;;;;;24.50;20.97;;;13.80;99.90;;;;;;5046562;28;20470;-84
2022/10/30 03:18:57;;;;;;;27.03;20.93;;;13.40;99.90;;;;;;5048379;28;20450;-82
2022/10/30 03:21:26;;;;;;;27.20;21.30;;;13.80;99.90;;;;;;5051839;28;20473;-84
2022/10/30 03:23:53;;;;;;;31.03;22.10;;;13.10;99.90;;;;;;5049451;28;20442;-81
2022/10/30 03:26:21;;;;;;;30.30;23.30;;;13.70;99.90;;;;;;5049767;28;20496;-81
2022/10/30 03:28:47;;;;;;;29.30;22.57;;;13.70;99.90;;;;;;5047947;28;20440;-82
2022/10/30 03:31:17;;;;;;;31.60;22.33;;;13.90;99.90;;;;;;5049180;28;20525;-84
2022/10/30 03:33:44;;;;;;;27.93;22.33;;;13.10;99.90;;;;;;5046537;28;20873;-82
2022/10/30 03:36:12;;;;;;;28.10;20.60;;;14.00;99.90;;;;;;5048742;28;20487;-83
2022/10/30 03:38:39;;;;;;;27.10;22.40;;;13.80;99.90;;;;;;5050313;28;20443;-82
2022/10/30 03:41:06;;;;;;;26.23;20.67;;;13.10;99.90;;;;;;5045838;28;20450;-82
2022/10/30 03:43:33;;;;;;;26.20;21.00;;;13.80;99.90;;;;;;5046124;28;20912;-83
2022/10/30 03:46:00;;;;;;;32.10;22.53;;;14.10;99.90;;;;;;5046841;28;20447;-84
2022/10/30 03:48:29;;;;;;;34.07;20.83;;;13.60;99.90;;;;;;5044786;28;20508;-81
2022/10/30 03:50:57;;;;;;;26.17;19.63;;;13.40;99.90;;;;;;5049383;28;20417;-83
2022/10/30 03:53:25;;;;;;;24.37;20.50;;;13.80;99.90;;;;;;5041056;28;20451;-82
2022/10/30 03:55:52;;;;;;;27.77;21.07;;;13.40;99.90;;;;;;5047918;28;20481;-82
2022/10/30 03:58:18;;;;;;;25.60;19.70;;;14.00;99.90;;;;;;5054566;28;20970;-81
2022/10/30 04:00:45;;;;;;;30.23;21.83;;;13.80;99.90;;;;;;5054619;28;20469;-83
2022/10/30 04:03:12;;;;;;;27.47;19.73;;;13.90;99.90;;;;;;5048595;28;20929;-82
2022/10/30 04:05:40;;;;;;;28.97;20.70;;;13.80;99.90;;;;;;5050973;28;20438;-83
2022/10/30 04:08:10;;;;;;;26.90;20.87;;;13.20;99.90;;;;;;5055561;28;20441;-85
2022/10/30 04:10:38;;;;;;;34.43;20.70;;;;;;;;;;5054537;28;20432;-82
2022/10/30 04:13:06;;;;;;;25.43;19.47;;;13.30;99.90;;;;;;5054677;28;20417;-81
2022/10/30 04:15:33;;;;;;;23.17;18.13;;;14.10;99.90;;;;;;5052604;28;20482;-83
2022/10/30 04:18:01;;;;;;;29.93;19.83;;;13.30;99.90;;;;;;5046594;28;20474;-84
2022/10/30 04:20:28;;;;;;;24.73;18.13;;;;;;;;;;5045167;28;20442;-82
2022/10/30 04:23:00;;;;;;;33.97;19.67;;;14.00;99.90;;;;;;5045780;28;20451;-83
2022/10/30 04:25:27;;;;;;;25.20;18.90;;;13.50;99.90;;;;;;5046559;28;20468;-83
2022/10/30 04:27:55;;;;;;;27.37;18.33;;;13.50;99.90;;;;;;5046133;28;20859;-83
2022/10/30 04:30:23;;;;;;;33.13;19.70;;;13.70;99.90;;;;;;5044206;28;20936;-84
2022/10/30 04:32:52;;;;;;;25.90;19.40;;;13.90;99.90;;;;;;5047155;28;20454;-82
2022/10/30 04:35:21;;;;;;;31.50;19.60;;;13.50;99.90;;;;;;5049971;28;20482;-82
2022/10/30 04:37:52;;;;;;;26.03;19.43;;;13.40;99.90;;;;;;5049395;28;20446;-82
2022/10/30 04:40:21;;;;;;;26.03;18.70;;;13.50;99.90;;;;;;5049066;28;20427;-82
2022/10/30 04:42:48;;;;;;;30.37;18.77;;;13.10;99.90;;;;;;5047875;28;20482;-83
2022/10/30 04:45:15;;;;;;;24.30;19.20;;;13.10;99.90;;;;;;5046845;28;20470;-82
2022/10/30 04:47:41;;;;;;;26.23;19.70;;;13.50;99.90;;;;;;5050268;28;20496;-82
2022/10/30 04:50:09;;;;;;;23.03;19.90;;;13.70;99.90;;;;;;5049306;28;20424;-82
2022/10/30 04:52:36;;;;;;;26.13;18.80;;;;;;;;;;5050606;28;20473;-82
2022/10/30 04:55:03;;;;;;;26.17;17.60;;;;;;;;;;5046428;28;20457;-84
2022/10/30 04:57:31;;;;;;;20.90;18.70;;;13.30;99.90;;;;;;5042798;28;20441;-84
2022/10/30 04:59:58;;;;;;;23.87;19.47;;;;;;;;;;5043119;28;20452;-84
2022/10/30 05:02:25;;;;;;;25.07;19.60;;;;;;;;;;5039647;28;20479;-84
2022/10/30 05:04:52;;;;;;;27.43;20.67;;;;;;;;;;5039028;28;20945;-84
2022/10/30 05:07:19;;;;;;;28.83;21.93;;;13.30;99.90;;;;;;5039477;28;20473;-84
2022/10/30 05:09:45;;;;;;;29.83;20.00;;;13.40;99.90;;;;;;5052536;28;20443;-84
2022/10/30 05:12:12;;;;;;;24.93;20.13;;;13.70;99.90;;;;;;5039392;28;20450;-84
2022/10/30 05:14:40;;;;;;;33.57;22.00;;;13.20;99.90;;;;;;5038368;28;20475;-83
2022/10/30 05:17:07;;;;;;;21.03;18.50;;;14.00;99.90;;;;;;5037859;28;20467;-83
2022/10/30 05:19:33;;;;;;;24.50;19.13;;;13.20;99.90;;;;;;5037941;28;20451;-84
2022/10/30 05:22:00;;;;;;;24.27;19.00;;;14.00;99.90;;;;;;5037787;28;20432;-84
2022/10/30 05:24:27;;;;;;;22.10;18.00;;;14.00;99.90;;;;;;5037629;28;20497;-84
2022/10/30 05:26:53;;;;;;;26.27;18.07;;;13.50;99.90;;;;;;5037589;28;20486;-84
2022/10/30 05:29:20;;;;;;;26.70;18.10;;;;;;;;;;5037805;28;20479;-84
2022/10/30 05:31:48;;;;;;;26.53;17.13;;;13.80;99.90;;;;;;5037133;28;20477;-84
2022/10/30 05:34:15;;;;;;;21.13;17.17;;;;;;;;;;5038166;28;20458;-83
2022/10/30 05:36:42;;;;;;;35.67;17.90;;;14.10;99.90;;;;;;5042084;28;20486;-83
2022/10/30 05:39:09;;;;;;;23.10;18.70;;;;;;;;;;5057770;28;20442;-83
2022/10/30 05:41:37;;;;;;;26.33;17.10;;;13.30;99.90;;;;;;5048149;28;20514;-84
2022/10/30 05:44:03;;;;;;;29.17;17.97;;;14.00;99.90;;;;;;5041096;28;20429;-82
2022/10/30 05:46:30;;;;;;;27.53;19.30;;;;;;;;;;5039950;28;21009;-84
2022/10/30 05:48:59;;;;;;;20.40;16.73;;;13.30;99.90;;;;;;5039417;28;20458;-84
2022/10/30 05:51:26;;;;;;;26.97;17.40;;;13.90;99.90;;;;;;5039069;28;20442;-83
2022/10/30 05:53:53;;;;;;;27.00;17.43;;;;;;;;;;5047685;28;20447;-84
2022/10/30 05:56:19;;;;;;;24.97;16.37;;;13.80;99.90;;;;;;5056996;28;20487;-83
2022/10/30 05:58:48;;;;;;;21.20;16.03;;;13.50;99.90;;;;;;5057642;28;20443;-83
2022/10/30 06:01:15;;;;;;;27.27;17.03;;;13.80;99.90;;;;;;5049232;28;20409;-82
2022/10/30 06:03:42;;;;;;;24.73;16.73;;;14.10;99.90;;;;;;5057455;28;20481;-82
2022/10/30 06:06:10;;;;;;;18.80;15.93;;;13.90;99.90;;;;;;5057733;28;20460;-83
2022/10/30 06:08:37;;;;;;;20.90;17.63;;;14.40;99.90;;;;;;5042911;28;20458;-83
2022/10/30 06:11:03;;;;;;;23.60;15.73;;;13.70;99.90;;;;;;5039697;28;20443;-81
2022/10/30 06:13:30;;;;;;;19.77;16.00;;;14.40;99.90;;;;;;5039288;28;20451;-83
2022/10/30 06:15:57;;;;;;;27.80;17.20;;;14.30;99.90;;;;;;5038410;28;20478;-83
2022/10/30 06:18:24;;;;;;;25.30;15.13;;;13.50;99.90;;;;;;5037930;28;20485;-83
2022/10/30 06:20:50;;;;;;;19.90;14.73;;;14.30;99.90;;;;;;5037238;28;20462;-83
2022/10/30 06:23:18;;;;;;;18.97;13.87;;;14.20;99.90;;;;;;5038386;28;20450;-83
2022/10/30 06:25:45;;;;;;;24.30;14.50;;;14.70;99.90;;;;;;5037647;28;20442;-83
2022/10/30 06:28:13;;;;;;;21.73;14.73;;;14.20;99.90;;;;;;5037271;28;20458;-83
2022/10/30 06:30:40;;;;;;;25.90;15.87;;;14.40;99.90;;;;;;5037103;28;20442;-84
2022/10/30 06:33:07;;;;;;;22.90;15.37;;;14.50;99.90;;;;;;5037597;28;20429;-84
2022/10/30 06:35:34;;;;;;;23.00;15.87;;;;;;;;;;5037360;28;20463;-83
2022/10/30 06:38:01;;;;;;;22.60;15.47;;;14.00;99.90;;;;;;5037794;28;20518;-84
2022/10/30 06:40:29;;;;;;;16.80;13.93;;;14.50;99.90;;;;;;5037670;28;20482;-84
2022/10/30 06:42:56;;;;;;;22.40;15.13;;;14.30;99.90;;;;;;5036266;28;20478;-83
2022/10/30 06:45:24;;;;;;;17.60;12.90;;;13.70;99.90;;;;;;5035215;28;20450;-83
2022/10/30 06:47:50;;;;;;;23.63;13.87;;;13.80;99.90;;;;;;5035646;28;20466;-82
2022/10/30 06:50:19;;;;;;;17.43;14.07;;;14.50;99.90;;;;;;5036237;28;20454;-83
2022/10/30 06:52:47;;;;;;;18.30;14.40;;;14.30;99.90;;;;;;5037034;28;20463;-83
2022/10/30 06:55:13;;;;;;;24.53;14.97;;;14.70;99.90;;;;;;5036566;28;20487;-84
2022/10/30 06:57:41;;;;;;;17.00;13.13;;;14.20;99.90;;;;;;5041115;28;20874;-84
2022/10/30 07:00:09;;;;;;;18.33;14.30;;;14.50;99.90;;;;;;5037863;28;20446;-84
2022/10/30 07:02:36;;;;;;;26.23;14.77;;;;;;;;;;5037378;28;20853;-83
2022/10/30 07:05:03;;;;;;;17.87;13.30;;;;;;;;;;5036998;28;20446;-83
2022/10/30 07:07:30;;;;;;;25.23;13.70;;;14.70;99.90;;;;;;5036830;28;20470;-84
2022/10/30 07:09:57;;;;;;;23.63;13.90;;;14.70;99.90;;;;;;5037059;28;20447;-84
2022/10/30 07:12:23;;;;;;;19.60;14.07;;;14.40;99.90;;;;;;5039529;28;20455;-84
2022/10/30 07:14:51;;;;;;;22.20;13.80;;;14.20;99.90;;;;;;5044081;28;20459;-84
2022/10/30 07:17:18;;;;;;;30.07;19.13;;;14.10;99.90;;;;;;5045249;28;20481;-83
2022/10/30 07:19:45;;;;;;;16.43;14.50;;;13.90;99.90;;;;;;5042098;28;20450;-84
2022/10/30 07:22:12;;;;;;;20.60;15.87;;;;;;;;;;5040684;28;20470;-84
2022/10/30 07:24:38;;;;;;;17.13;14.70;;;14.40;99.90;;;;;;5040451;28;20417;-84
2022/10/30 07:27:05;;;;;;;21.47;14.47;;;14.40;99.90;;;;;;5040386;28;20470;-83
2022/10/30 07:29:32;;;;;;;19.53;14.57;;;;;;;;;;5041036;28;20436;-83
2022/10/30 07:32:00;;;;;;;22.90;14.33;;;14.20;99.90;;;;;;5040281;28;20796;-84
2022/10/30 07:34:27;;;;;;;16.90;13.83;;;;;;;;;;5040117;28;20945;-84
2022/10/30 07:36:53;;;;;;;21.33;15.27;;;14.60;99.90;;;;;;5040191;28;20461;-84
2022/10/30 07:39:20;;;;;;;22.03;13.17;;;14.60;99.90;;;;;;5040495;28;20447;-83
2022/10/30 07:41:48;;;;;;;21.97;15.90;;;14.00;99.90;;;;;;5040902;28;20492;-84
2022/10/30 07:44:15;;;;;;;22.50;15.63;;;;;;;;;;5040832;28;20478;-84
2022/10/30 07:46:42;;;;;;;22.97;14.20;;;14.70;99.90;;;;;;5041915;28;20441;-83
2022/10/30 07:49:10;;;;;;;19.77;14.97;;;14.00;99.90;;;;;;5040678;28;20454;-84
2022/10/30 07:51:37;;;;;;;18.73;13.97;;;14.30;99.90;;;;;;5041487;28;20740;-84
2022/10/30 07:54:04;;;;;;;25.07;16.37;;;;;;;;;;5041098;28;20916;-83
2022/10/30 07:56:31;;;;;;;23.80;15.17;;;14.70;99.90;;;;;;5040856;28;20540;-83
2022/10/30 07:58:57;;;;;;;20.87;14.40;;;14.90;99.90;;;;;;5040623;28;20485;-82
2022/10/30 08:01:24;;;;;;;20.17;14.13;;;14.70;99.90;;;;;;5047686;28;20418;-84
2022/10/30 08:03:51;;;;;;;17.57;13.30;;;;;;;;;;5044795;28;20504;-83
2022/10/30 08:06:19;;;;;;;18.90;13.27;;;15.00;99.90;;;;;;5042674;28;20810;-84
2022/10/30 08:08:46;;;;;;;18.70;13.40;;;;;;;;;;5042211;28;20480;-84
2022/10/30 08:11:13;;;;;;;17.13;12.27;;;15.50;99.90;;;;;;5041019;28;20447;-83
2022/10/30 08:13:39;;;;;;;17.03;12.60;;;15.70;99.90;;;;;;5040490;28;20493;-84
2022/10/30 08:16:06;;;;;;;19.27;14.03;;;15.50;99.90;;;;;;5040775;28;20486;-84
2022/10/30 08:18:34;;;;;;;22.37;13.60;;;;;;;;;;5039986;28;21010;-84
2022/10/30 08:21:00;;;;;;;19.40;12.70;;;15.60;99.90;;;;;;5040002;28;20425;-84
2022/10/30 08:23:28;;;;;;;18.20;12.90;;;15.80;99.90;;;;;;5039207;28;20453;-83
2022/10/30 08:25:59;;;;;;;16.67;12.73;;;15.40;99.90;;;;;;5039531;28;20471;-84
2022/10/30 08:28:26;;;;;;;16.40;12.43;;;16.10;99.90;;;;;;5076643;22;20530;-87
2022/10/30 08:30:52;;;;;;;18.10;12.30;;;16.10;99.90;;;;;;5038161;28;20446;-86
2022/10/30 08:33:20;;;;;;;20.77;13.50;;;;;;;;;;5037514;28;20498;-87
2022/10/30 08:35:50;;;;;;;14.00;12.30;;;15.60;99.90;;;;;;5045458;28;20473;-85
2022/10/30 08:38:18;;;;;;;16.90;11.90;;;;;;;;;;5048877;28;20477;-86
2022/10/30 08:40:46;;;;;;;25.53;14.90;;;15.90;99.90;;;;;;5050046;28;20447;-86
2022/10/30 08:43:14;;;;;;;16.27;11.93;;;;;;;;;;5046133;28;20430;-87
2022/10/30 08:45:41;;;;;;;21.87;14.83;;;;;;;;;;5045991;28;20446;-87
2022/10/30 08:48:11;;;;;;;42.87;13.67;;;16.20;99.90;;;;;;5045731;28;20542;-87
2022/10/30 08:50:38;;;;;;;18.90;11.90;;;;;;;;;;5045618;28;20506;-86
2022/10/30 08:53:27;;;;;;;15.93;11.30;;;16.50;99.90;;;;;;5048593;28;20447;-87
2022/10/30 08:55:55;;;;;;;18.90;12.43;;;;;;;;;;5049702;28;20819;-87
2022/10/30 08:58:23;;;;;;;12.73;10.90;;;;;;;;;;5049000;28;20474;-88
2022/10/30 09:00:50;;;;;;;15.57;10.97;;;;;;;;;;5056541;28;20431;-86
2022/10/30 09:03:17;;;;;;;14.17;11.37;;;17.10;99.90;;;;;;5058945;28;20501;-87
2022/10/30 09:05:43;;;;;;;17.93;10.77;;;16.40;99.90;;;;;;5058697;28;20461;-87
2022/10/30 09:08:10;;;;;;;16.90;12.43;;;16.90;99.90;;;;;;5045199;28;20988;-86
2022/10/30 09:10:37;;;;;;;15.43;9.73;;;16.50;99.90;;;;;;5043810;28;20446;-87
2022/10/30 09:13:06;;;;;;;22.53;11.23;;;16.90;99.90;;;;;;5044544;28;20450;-87
2022/10/30 09:15:33;;;;;;;10.33;9.03;;;;;;;;;;5043502;28;20450;-87
2022/10/30 09:18:02;;;;;;;14.97;9.20;;;17.20;99.90;;;;;;5040074;28;20981;-86
2022/10/30 09:20:30;;;;;;;10.13;9.10;;;16.70;99.90;;;;;;5040118;28;20485;-85
2022/10/30 09:22:57;;;;;;;13.03;9.70;;;;;;;;;;5041636;28;20457;-88
2022/10/30 09:25:24;;;;;;;11.10;9.10;;;;;;;;;;5045026;28;20455;-86
2022/10/30 09:27:51;;;;;;;11.47;9.40;;;;;;;;;;5042375;28;20505;-86
2022/10/30 09:33:24;;;;;;;15.23;11.03;;;;;;;;;;5028410;28;20522;-87
2022/10/30 09:35:51;;;;;;;16.67;10.17;;;;;;;;;;5055704;28;20454;-87
2022/10/30 09:38:18;;;;;;;15.47;9.30;;;;;;;;;;5053814;28;20469;-87
2022/10/30 09:40:58;;;;;;;12.73;8.80;;;17.00;99.90;;;;;;5037690;28;20439;-87
2022/10/30 09:43:38;;;;;;;11.70;8.80;;;16.80;99.90;;;;;;5039050;28;20435;-87
2022/10/30 09:46:30;;;;;;;14.03;8.50;;;17.30;99.90;;;;;;5038415;28;20480;-87
2022/10/30 09:49:17;;;;;;;13.73;8.70;;;17.70;99.90;;;;;;5040100;28;20437;-88
2022/10/30 09:52:08;;;;;;;16.30;8.73;;;17.50;99.90;;;;;;5040983;28;20435;-87
2022/10/30 09:54:47;;;;;;;13.13;9.63;;;17.50;99.90;;;;;;5037412;28;20569;-88
2022/10/30 09:57:21;;;;;;;10.90;8.97;;;17.60;99.90;;;;;;5051208;28;20482;-87
2022/10/30 10:00:00;;;;;;;12.40;7.57;;;17.80;99.90;;;;;;5041722;28;20532;-87
2022/10/30 10:02:35;;;;;;;13.87;7.97;;;17.20;99.90;;;;;;5043548;28;20409;-88
2022/10/30 10:05:11;;;;;;;15.80;8.20;;;17.70;99.90;;;;;;5043924;28;20425;-88
2022/10/30 10:07:41;;;;;;;10.63;7.63;;;17.80;99.90;;;;;;5046855;28;20458;-87
2022/10/30 10:10:15;;;;;;;18.03;7.40;;;17.90;99.90;;;;;;5042546;28;20557;-87
2022/10/30 10:12:46;;;;;;;9.77;8.17;;;18.00;99.90;;;;;;5038011;28;20413;-87
2022/10/30 10:15:19;;;;;;;14.33;7.97;;;18.10;99.90;;;;;;5038557;28;20438;-87
2022/10/30 10:17:55;;;;;;;13.37;8.07;;;18.10;99.90;;;;;;5039322;28;20490;-89
2022/10/30 10:20:30;;;;;;;14.30;7.70;;;18.20;1.00;;;;;;5038242;28;20792;-88
2022/10/30 10:22:59;;;;;;;12.33;8.50;;;18.30;99.90;;;;;;5038257;28;20400;-87
2022/10/30 10:25:26;;;;;;;14.10;8.47;;;;;;;;;;5036581;28;20450;-86
2022/10/30 10:28:04;;;;;;;15.57;6.77;;;18.80;69.70;;;;;;5037182;28;20474;-85
2022/10/30 10:30:38;;;;;;;14.20;7.37;;;18.80;99.90;;;;;;5037974;28;20484;-87
2022/10/30 10:33:31;;;;;;;14.63;8.17;;;18.20;99.90;;;;;;5039145;28;20485;-87
2022/10/30 10:36:08;;;;;;;14.57;8.40;;;18.60;99.90;;;;;;5037470;28;20829;-87
2022/10/30 10:38:47;;;;;;;8.43;6.77;;;18.60;1.00;;;;;;5036912;28;20561;-87
2022/10/30 10:41:20;;;;;;;7.97;7.17;;;18.90;99.90;;;;;;5036467;28;20430;-88
2022/10/30 10:44:01;;;;;;;11.93;7.27;;;18.40;99.90;;;;;;5035951;28;20442;-87
2022/10/30 10:46:44;;;;;;;15.17;8.10;;;18.80;99.90;;;;;;5036979;28;20469;-87
2022/10/30 10:49:26;;;;;;;12.93;7.00;;;18.60;99.90;;;;;;5044540;28;20412;-85
2022/10/30 10:52:01;;;;;;;7.53;6.83;;;18.70;99.90;;;;;;5061469;28;20425;-90
2022/10/30 10:54:36;;;;;;;13.80;7.77;;;18.80;97.00;;;;;;5061878;28;20418;-94
2022/10/30 10:57:04;;;;;;;12.63;8.63;;;;;;;;;;5061828;28;20490;-91
2022/10/30 10:59:34;;;;;;;13.53;8.37;;;;;;;;;;5061336;28;20469;-88
2022/10/30 11:02:12;;;;;;;13.43;7.30;;;;;;;;;;5061358;28;20414;-90
2022/10/30 11:04:47;;;;;;;12.77;6.30;;;19.00;1.00;;;;;;5061888;28;20425;-90
2022/10/30 11:07:21;;;;;;;11.63;7.20;;;19.10;63.50;;;;;;5061300;28;20564;-89
2022/10/30 11:09:52;;;;;;;12.37;6.90;;;19.20;5.00;;;;;;5055682;28;20450;-89
2022/10/30 11:12:24;;;;;;;10.63;5.93;;;19.20;1.00;;;;;;5046686;28;20457;-90
2022/10/30 11:14:51;;;;;;;17.47;6.33;;;;;;;;;;5043439;28;20434;-88
2022/10/30 11:17:27;;;;;;;11.57;6.47;;;19.40;99.90;;;;;;5043634;28;20504;-89
2022/10/30 11:20:01;;;;;;;7.60;5.90;;;19.30;16.80;;;;;;5044748;28;20424;-88
2022/10/30 11:22:31;;;;;;;12.10;7.53;;;19.40;99.90;;;;;;5043215;28;20435;-89
2022/10/30 11:25:18;;;;;;;12.83;6.33;;;19.40;99.90;;;;;;5040830;28;20506;-87
2022/10/30 11:27:48;;;;;;;15.57;6.67;;;19.20;1.00;;;;;;5038979;28;20528;-86
2022/10/30 11:30:20;;;;;;;8.93;4.90;;;20.00;99.90;;;;;;5038872;28;20451;-86
2022/10/30 11:33:36;;;;;;;8.53;5.37;;;19.00;1.00;;;;;;5040773;28;20454;-86
2022/10/30 11:36:10;;;;;;;19.37;6.67;;;19.60;99.90;;;;;;5037986;28;20447;-87
2022/10/30 11:38:37;;;;;;;8.57;5.90;;;19.10;1.00;;;;;;5037801;28;20848;-85
2022/10/30 11:41:04;;;;;;;14.03;6.60;;;;;;;;;;5038080;28;20457;-85
2022/10/30 11:43:31;;;;;;;11.57;7.27;;;;;;;;;;5042088;28;20907;-86
2022/10/30 11:45:58;;;;;;;11.10;6.63;;;;;;;;;;5055302;28;20469;-85
2022/10/30 11:48:32;;;;;;;12.03;8.20;;;19.50;1.00;;;;;;5053351;28;20470;-83
2022/10/30 11:51:03;;;;;;;11.00;7.33;;;19.50;1.00;;;;;;5057896;28;20427;-87
2022/10/30 11:53:37;;;;;;;11.40;7.30;;;19.60;1.00;;;;;;5060068;28;20927;-85
2022/10/30 11:56:14;;;;;;;9.43;7.10;;;19.60;99.90;;;;;;5061121;28;20478;-85
2022/10/30 11:58:47;;;;;;;14.60;7.63;;;19.50;99.90;;;;;;5056059;28;20514;-87
2022/10/30 12:01:21;;;;;;;12.93;8.50;;;19.50;99.90;;;;;;5042631;28;20540;-88
2022/10/30 12:03:48;;;;;;;8.60;6.93;;;;;;;;;;5042417;28;20445;-87
2022/10/30 12:06:27;;;;;;;14.13;7.80;;;19.60;99.90;;;;;;5052997;28;20465;-87
2022/10/30 12:09:16;;;;;;;10.57;6.43;;;20.10;99.90;;;;;;5053798;28;20431;-89
2022/10/30 12:31:18;;;;;;;11.47;6.67;;;20.10;99.90;;;;;;5058287;22;20572;-85
2022/10/30 12:33:52;;;;;;;12.30;7.70;;;20.10;7.50;;;;;;5055312;28;20455;-85
2022/10/30 12:36:37;;;;;;;13.07;6.63;;;20.10;99.90;;;;;;5055743;28;20435;-86
2022/10/30 12:39:11;;;;;;;12.20;7.80;;;20.10;99.90;;;;;;5050558;28;20897;-86
2022/10/30 12:41:42;;;;;;;11.30;7.30;;;20.10;99.90;;;;;;5068126;22;20942;-86
2022/10/30 12:44:13;;;;;;;8.90;5.73;;;20.10;99.90;;;;;;5045812;28;20485;-87
2022/10/30 12:46:47;;;;;;;12.20;6.87;;;20.10;1.00;;;;;;5045673;28;20434;-88
